createdAt,value
2022-07-31T00:00:12.633Z,10.97
2022-07-31T00:02:39.310Z,11.33
2022-07-31T00:05:06.330Z,10.20
2022-07-31T00:07:33.005Z,9.10
2022-07-31T00:09:59.641Z,8.30
2022-07-31T00:12:26.344Z,9.40
2022-07-31T00:14:53.600Z,8.63
2022-07-31T00:17:20.231Z,9.87
2022-07-31T00:19:47.182Z,8.67
2022-07-31T00:22:13.829Z,8.67
2022-07-31T00:24:40.624Z,8.67
2022-07-31T00:27:07.822Z,10.10
2022-07-31T00:29:34.403Z,9.53
2022-07-31T00:32:01.104Z,8.83
2022-07-31T00:34:28.090Z,10.93
2022-07-31T00:36:54.730Z,9.37
2022-07-31T00:39:21.409Z,10.17
2022-07-31T00:41:49.535Z,10.70
2022-07-31T00:44:16.700Z,10.13
2022-07-31T00:46:45.186Z,10.60
2022-07-31T00:49:11.896Z,10.27
2022-07-31T00:51:40.174Z,9.90
2022-07-31T00:54:08.414Z,8.27
2022-07-31T00:56:35.492Z,8.70
2022-07-31T00:59:03.238Z,8.90
2022-07-31T01:01:31.015Z,8.33
2022-07-31T01:03:58.351Z,7.77
2022-07-31T01:06:24.986Z,8.53
2022-07-31T01:08:51.911Z,9.60
2022-07-31T01:11:28.171Z,8.67
2022-07-31T01:13:59.457Z,8.50
2022-07-31T01:16:30.790Z,8.90
2022-07-31T01:18:59.320Z,9.20
2022-07-31T01:21:42.895Z,8.13
2022-07-31T01:24:14.864Z,7.33
2022-07-31T01:27:31.808Z,8.07
2022-07-31T01:30:17.427Z,8.57
2022-07-31T01:32:49.321Z,7.37
2022-07-31T01:35:28.336Z,8.77
2022-07-31T01:38:01.804Z,8.00
2022-07-31T01:40:43.195Z,8.07
2022-07-31T01:43:14.780Z,8.03
2022-07-31T01:45:43.462Z,7.60
2022-07-31T01:48:14.369Z,8.73
2022-07-31T01:50:44.941Z,7.63
2022-07-31T01:53:21.358Z,7.33
2022-07-31T01:56:02.823Z,7.67
2022-07-31T01:58:38.031Z,6.37
2022-07-31T02:01:11.614Z,7.63
2022-07-31T02:03:43.614Z,8.10
2022-07-31T02:06:18.357Z,8.47
2022-07-31T02:08:52.037Z,7.63
2022-07-31T02:11:20.299Z,8.23
2022-07-31T02:13:49.784Z,7.83
2022-07-31T02:16:18.700Z,7.83
2022-07-31T02:18:53.427Z,8.27
2022-07-31T02:21:25.690Z,7.57
2022-07-31T02:23:53.230Z,6.93
2022-07-31T02:26:21.887Z,7.80
2022-07-31T02:28:50.857Z,7.67
2022-07-31T02:31:18.979Z,9.20
2022-07-31T02:33:48.232Z,9.87
2022-07-31T02:36:20.404Z,10.83
2022-07-31T02:38:49.217Z,20.63
2022-07-31T02:41:17.539Z,14.80
2022-07-31T02:43:45.458Z,22.40
2022-07-31T02:46:23.203Z,14.90
2022-07-31T02:48:51.483Z,16.67
2022-07-31T02:51:20.184Z,12.93
2022-07-31T02:53:47.086Z,24.20
2022-07-31T02:56:15.761Z,12.00
2022-07-31T02:58:43.831Z,13.10
2022-07-31T03:01:21.565Z,11.83
2022-07-31T03:03:48.307Z,11.10
2022-07-31T03:06:16.227Z,13.20
2022-07-31T03:08:43.133Z,10.23
2022-07-31T03:11:11.465Z,9.67
2022-07-31T03:13:39.802Z,9.57
2022-07-31T03:16:08.830Z,11.70
2022-07-31T03:18:36.963Z,9.47
2022-07-31T03:21:04.525Z,9.97
2022-07-31T03:23:36.525Z,10.83
2022-07-31T03:26:19.145Z,12.00
2022-07-31T03:28:45.869Z,9.90
2022-07-31T03:31:12.735Z,9.27
2022-07-31T03:33:39.414Z,9.37
2022-07-31T03:36:06.329Z,10.43
2022-07-31T03:38:41.724Z,9.60
2022-07-31T03:41:31.535Z,9.70
2022-07-31T03:43:58.990Z,12.27
2022-07-31T03:46:25.750Z,13.77
2022-07-31T03:48:53.397Z,11.10
2022-07-31T03:51:21.788Z,12.10
2022-07-31T03:53:49.540Z,23.97
2022-07-31T03:56:50.874Z,11.33
2022-07-31T03:59:20.012Z,10.17
2022-07-31T04:01:57.731Z,10.87
2022-07-31T04:05:00.601Z,16.77
2022-07-31T04:07:27.617Z,14.00
2022-07-31T04:09:54.627Z,27.03
2022-07-31T04:12:21.352Z,11.20
2022-07-31T04:14:48.226Z,12.53
2022-07-31T04:17:14.911Z,15.33
2022-07-31T04:19:41.691Z,9.83
2022-07-31T04:22:08.874Z,27.50
2022-07-31T04:24:36.375Z,12.73
2022-07-31T04:27:27.490Z,20.03
2022-07-31T04:29:56.086Z,14.03
2022-07-31T04:32:23.998Z,33.77
2022-07-31T04:34:54.448Z,12.30
2022-07-31T04:37:21.459Z,11.33
2022-07-31T04:39:48.204Z,18.53
2022-07-31T04:42:15.511Z,25.43
2022-07-31T04:44:42.314Z,12.77
2022-07-31T04:47:08.976Z,14.00
2022-07-31T04:49:41.421Z,11.90
2022-07-31T04:52:08.833Z,20.10
2022-07-31T04:54:37.917Z,11.83
2022-07-31T04:57:04.635Z,19.03
2022-07-31T04:59:59.295Z,12.83
2022-07-31T05:02:20.145Z,13.43
2022-07-31T05:04:47.001Z,20.43
2022-07-31T05:07:23.267Z,15.17
2022-07-31T05:09:50.857Z,32.40
2022-07-31T05:12:17.577Z,12.63
2022-07-31T05:14:44.233Z,19.50
2022-07-31T05:17:10.984Z,14.83
2022-07-31T05:19:52.949Z,13.97
2022-07-31T05:22:45.599Z,15.27
2022-07-31T05:25:29.731Z,14.37
2022-07-31T05:27:56.542Z,14.00
2022-07-31T05:30:30.640Z,14.17
2022-07-31T05:32:58.573Z,14.63
2022-07-31T05:35:25.676Z,15.10
2022-07-31T05:37:52.489Z,13.40
2022-07-31T05:40:24.645Z,13.00
2022-07-31T05:43:26.691Z,13.67
2022-07-31T05:46:14.120Z,13.83
2022-07-31T05:48:41.529Z,13.40
2022-07-31T05:51:10.530Z,12.40
2022-07-31T05:53:37.707Z,14.30
2022-07-31T05:56:22.856Z,14.93
2022-07-31T05:58:51.578Z,14.90
2022-07-31T06:01:18.301Z,15.10
2022-07-31T06:03:52.131Z,14.77
2022-07-31T06:06:31.175Z,13.73
2022-07-31T06:09:03.788Z,15.03
2022-07-31T06:11:35.110Z,14.40
2022-07-31T06:14:01.802Z,14.23
2022-07-31T06:16:36.514Z,14.50
2022-07-31T06:19:03.198Z,14.00
2022-07-31T06:21:30.924Z,15.17
2022-07-31T06:23:57.917Z,13.17
2022-07-31T06:26:36.121Z,14.43
2022-07-31T06:29:02.878Z,15.07
2022-07-31T06:31:29.553Z,13.30
2022-07-31T06:33:57.938Z,13.77
2022-07-31T06:36:29.448Z,15.00
2022-07-31T06:38:57.455Z,13.83
2022-07-31T06:41:44.981Z,12.93
2022-07-31T06:44:31.358Z,13.93
2022-07-31T06:47:17.713Z,13.33
2022-07-31T06:49:50.168Z,13.83
2022-07-31T06:52:17.536Z,15.60
2022-07-31T06:54:44.328Z,15.47
2022-07-31T06:57:12.508Z,16.10
2022-07-31T06:59:40.713Z,14.40
2022-07-31T07:02:08.835Z,13.30
2022-07-31T07:05:04.751Z,15.20
2022-07-31T07:07:22.550Z,14.03
2022-07-31T07:09:50.868Z,17.20
2022-07-31T07:12:35.056Z,15.07
2022-07-31T07:15:01.842Z,16.50
2022-07-31T07:17:29.939Z,14.73
2022-07-31T07:19:57.113Z,16.43
2022-07-31T07:22:31.627Z,15.27
2022-07-31T07:25:01.139Z,15.30
2022-07-31T07:27:28.065Z,15.20
2022-07-31T07:29:54.858Z,14.70
2022-07-31T07:32:21.500Z,16.27
2022-07-31T07:34:48.288Z,14.60
2022-07-31T07:37:46.110Z,13.67
2022-07-31T07:40:12.940Z,15.30
2022-07-31T07:42:40.033Z,15.23
2022-07-31T07:45:08.107Z,14.80
2022-07-31T07:48:05.698Z,14.10
2022-07-31T07:50:22.827Z,15.17
2022-07-31T07:53:31.925Z,13.67
2022-07-31T07:56:36.862Z,11.90
2022-07-31T07:59:32.589Z,13.67
2022-07-31T08:02:19.561Z,12.53
2022-07-31T08:04:48.466Z,12.87
2022-07-31T08:07:15.134Z,10.70
2022-07-31T08:09:41.792Z,12.80
2022-07-31T08:12:28.174Z,10.23
2022-07-31T08:15:07.407Z,10.93
2022-07-31T08:17:52.806Z,9.60
2022-07-31T08:20:21.774Z,10.63
2022-07-31T08:22:49.649Z,11.00
2022-07-31T08:25:16.509Z,9.00
2022-07-31T08:27:47.891Z,10.80
2022-07-31T08:30:15.833Z,9.03
2022-07-31T08:32:42.728Z,7.83
2022-07-31T08:35:32.696Z,8.93
2022-07-31T08:38:03.627Z,9.80
2022-07-31T08:40:42.651Z,9.40
2022-07-31T08:43:59.531Z,9.10
2022-07-31T08:46:02.891Z,8.73
2022-07-31T08:48:37.734Z,8.70
2022-07-31T08:51:06.067Z,8.90
2022-07-31T08:53:51.893Z,8.90
2022-07-31T08:56:21.081Z,8.27
2022-07-31T08:58:47.808Z,8.43
2022-07-31T09:01:15.163Z,7.33
2022-07-31T09:03:42.164Z,7.93
2022-07-31T09:06:14.820Z,6.90
2022-07-31T09:08:41.859Z,7.40
2022-07-31T09:11:14.182Z,7.30
2022-07-31T09:14:01.433Z,8.53
2022-07-31T09:16:47.278Z,7.27
2022-07-31T09:19:53.117Z,8.13
2022-07-31T09:22:10.296Z,7.37
2022-07-31T09:24:39.793Z,7.03
2022-07-31T09:27:09.434Z,6.70
2022-07-31T09:29:41.819Z,7.10
2022-07-31T09:32:21.143Z,6.40
2022-07-31T09:35:10.403Z,7.00
2022-07-31T09:37:39.221Z,6.30
2022-07-31T09:40:35.409Z,6.30
2022-07-31T09:43:17.478Z,6.30
2022-07-31T09:45:48.864Z,5.83
2022-07-31T09:48:26.230Z,7.73
2022-07-31T09:50:57.353Z,5.97
2022-07-31T09:53:25.864Z,5.70
2022-07-31T09:56:02.804Z,5.97
2022-07-31T09:58:29.549Z,6.93
2022-07-31T10:00:57.200Z,6.47
2022-07-31T10:03:26.629Z,5.90
2022-07-31T10:05:55.356Z,7.80
2022-07-31T10:08:26.638Z,6.43
2022-07-31T10:11:24.556Z,7.63
2022-07-31T10:14:02.341Z,7.17
2022-07-31T10:16:35.242Z,5.70
2022-07-31T10:19:35.101Z,5.30
2022-07-31T10:22:35.951Z,13.93
2022-07-31T10:25:03.296Z,6.93
2022-07-31T10:27:30.212Z,4.33
2022-07-31T10:30:02.159Z,4.80
2022-07-31T10:32:29.010Z,5.10
2022-07-31T10:35:31.063Z,4.97
2022-07-31T10:38:48.523Z,5.00
2022-07-31T10:41:36.591Z,4.40
2022-07-31T10:44:39.111Z,4.43
2022-07-31T10:47:19.503Z,3.57
2022-07-31T10:50:00.537Z,5.10
2022-07-31T10:52:33.054Z,3.73
2022-07-31T10:55:19.265Z,3.87
2022-07-31T10:58:14.282Z,3.00
2022-07-31T11:00:43.914Z,4.20
2022-07-31T11:03:22.313Z,4.13
2022-07-31T11:06:09.322Z,7.07
2022-07-31T11:08:55.387Z,6.30
2022-07-31T11:11:41.582Z,5.40
2022-07-31T11:14:40.344Z,3.53
2022-07-31T11:18:22.569Z,4.07
2022-07-31T11:20:29.838Z,3.97
2022-07-31T11:23:03.322Z,4.00
2022-07-31T11:25:34.667Z,3.70
2022-07-31T11:28:18.978Z,8.23
2022-07-31T11:30:56.066Z,7.33
2022-07-31T11:33:41.967Z,4.07
2022-07-31T11:36:09.327Z,3.17
2022-07-31T11:38:37.117Z,3.23
2022-07-31T11:41:06.458Z,4.43
2022-07-31T11:43:34.618Z,4.00
2022-07-31T11:46:02.515Z,3.50
2022-07-31T11:48:38.040Z,3.77
2022-07-31T11:51:06.685Z,4.03
2022-07-31T11:53:41.893Z,3.93
2022-07-31T11:56:08.630Z,3.03
2022-07-31T11:58:35.989Z,3.90
2022-07-31T12:01:04.441Z,3.20
2022-07-31T12:03:32.568Z,3.00
2022-07-31T12:06:00.239Z,2.70
2022-07-31T12:08:28.519Z,2.50
2022-07-31T12:10:57.491Z,3.00
2022-07-31T12:13:25.677Z,3.10
2022-07-31T12:16:06.134Z,3.13
2022-07-31T12:18:53.966Z,3.03
2022-07-31T12:21:29.416Z,8.33
2022-07-31T12:23:58.771Z,2.60
2022-07-31T12:26:33.274Z,3.60
2022-07-31T12:29:02.217Z,4.17
2022-07-31T12:31:31.129Z,2.40
2022-07-31T12:33:58.109Z,3.50
2022-07-31T12:36:24.825Z,1.97
2022-07-31T12:39:03.543Z,2.27
2022-07-31T12:41:31.049Z,1.93
2022-07-31T12:44:14.575Z,2.03
2022-07-31T12:46:41.811Z,2.33
2022-07-31T12:49:08.732Z,1.57
2022-07-31T12:51:45.546Z,2.70
2022-07-31T12:54:17.916Z,2.60
2022-07-31T12:56:46.815Z,3.03
2022-07-31T12:59:14.301Z,2.43
2022-07-31T13:01:41.543Z,2.67
2022-07-31T13:04:19.238Z,2.20
2022-07-31T13:06:48.705Z,2.03
2022-07-31T13:09:15.961Z,4.90
2022-07-31T13:11:46.010Z,2.27
2022-07-31T13:14:18.934Z,2.60
2022-07-31T13:16:46.839Z,2.80
2022-07-31T13:19:14.604Z,5.10
2022-07-31T13:21:49.113Z,2.40
2022-07-31T13:24:20.963Z,2.77
2022-07-31T13:26:49.037Z,3.33
2022-07-31T13:29:16.912Z,3.83
2022-07-31T13:31:44.206Z,2.47
2022-07-31T13:34:11.346Z,2.67
2022-07-31T13:36:39.226Z,2.67
2022-07-31T13:39:10.206Z,2.43
2022-07-31T13:41:38.862Z,3.90
2022-07-31T13:44:06.485Z,2.00
2022-07-31T13:46:33.242Z,2.77
2022-07-31T13:49:01.972Z,3.20
2022-07-31T13:51:29.694Z,3.83
2022-07-31T13:53:56.480Z,3.63
2022-07-31T13:56:38.913Z,3.23
2022-07-31T13:59:09.906Z,3.30
2022-07-31T14:02:04.280Z,3.30
2022-07-31T14:04:25.245Z,3.30
2022-07-31T14:06:51.947Z,3.67
2022-07-31T14:09:19.477Z,3.20
2022-07-31T14:11:46.179Z,2.80
2022-07-31T14:14:15.161Z,3.33
2022-07-31T14:16:49.055Z,3.37
2022-07-31T14:19:15.700Z,3.50
2022-07-31T14:21:56.338Z,4.80
2022-07-31T14:24:23.342Z,2.80
2022-07-31T14:26:49.999Z,3.97
2022-07-31T14:29:16.673Z,3.40
2022-07-31T14:31:43.336Z,3.03
2022-07-31T14:34:10.042Z,4.03
2022-07-31T14:36:36.713Z,4.20
2022-07-31T14:39:03.505Z,5.40
2022-07-31T14:41:30.154Z,3.30
2022-07-31T14:43:56.861Z,3.17
2022-07-31T14:46:23.598Z,2.80
2022-07-31T14:48:50.259Z,4.87
2022-07-31T14:51:18.533Z,3.10
2022-07-31T14:53:46.310Z,3.60
2022-07-31T14:56:13.024Z,3.97
2022-07-31T14:58:57.782Z,3.07
2022-07-31T15:01:26.934Z,3.00
2022-07-31T15:03:57.488Z,5.70
2022-07-31T15:06:41.836Z,4.53
2022-07-31T15:09:10.987Z,4.80
2022-07-31T15:11:59.127Z,4.80
2022-07-31T15:14:24.989Z,6.37
2022-07-31T15:16:51.955Z,4.50
2022-07-31T15:19:18.578Z,2.67
2022-07-31T15:22:10.100Z,3.00
2022-07-31T15:24:32.818Z,5.43
2022-07-31T15:26:59.734Z,5.67
2022-07-31T15:30:05.516Z,6.63
2022-07-31T15:32:13.595Z,3.73
2022-07-31T15:34:40.254Z,5.87
2022-07-31T15:37:07.593Z,3.53
2022-07-31T15:39:34.613Z,4.80
2022-07-31T15:42:02.350Z,5.00
2022-07-31T15:44:29.141Z,5.40
2022-07-31T15:46:55.855Z,5.23
2022-07-31T15:49:22.737Z,3.07
2022-07-31T15:51:49.540Z,4.23
2022-07-31T15:54:16.228Z,4.47
2022-07-31T15:56:42.965Z,4.90
2022-07-31T15:59:09.645Z,3.10
2022-07-31T16:01:37.627Z,3.20
2022-07-31T16:04:16.484Z,5.13
2022-07-31T16:06:48.938Z,3.30
2022-07-31T16:09:17.289Z,3.10
2022-07-31T16:12:03.523Z,2.67
2022-07-31T16:14:30.567Z,2.93
2022-07-31T16:16:57.504Z,10.13
2022-07-31T16:19:25.175Z,4.77
2022-07-31T16:21:53.032Z,3.87
2022-07-31T16:24:22.166Z,3.93
2022-07-31T16:26:49.594Z,3.50
2022-07-31T16:29:17.774Z,3.87
2022-07-31T16:32:04.093Z,3.60
2022-07-31T16:34:30.778Z,3.70
2022-07-31T16:36:57.499Z,3.30
2022-07-31T16:39:24.174Z,3.20
2022-07-31T16:41:51.922Z,4.73
2022-07-31T16:44:21.996Z,3.00
2022-07-31T16:46:54.249Z,3.63
2022-07-31T16:49:36.068Z,2.80
2022-07-31T16:52:07.123Z,3.40
2022-07-31T16:54:34.170Z,7.27
2022-07-31T16:57:00.845Z,2.80
2022-07-31T16:59:27.546Z,3.80
2022-07-31T17:01:59.990Z,3.13
2022-07-31T17:04:27.785Z,4.20
2022-07-31T17:06:55.129Z,2.67
2022-07-31T17:09:22.069Z,2.83
2022-07-31T17:11:52.130Z,3.57
2022-07-31T17:14:20.224Z,3.60
2022-07-31T17:16:49.052Z,4.07
2022-07-31T17:19:42.761Z,5.33
2022-07-31T17:22:04.986Z,3.07
2022-07-31T17:24:31.882Z,3.57
2022-07-31T17:26:59.763Z,3.57
2022-07-31T17:29:26.457Z,3.00
2022-07-31T17:31:53.168Z,2.77
2022-07-31T17:34:19.864Z,2.80
2022-07-31T17:36:50.035Z,3.50
2022-07-31T17:39:17.106Z,2.90
2022-07-31T17:41:44.073Z,2.57
2022-07-31T17:44:10.836Z,3.27
2022-07-31T17:46:48.001Z,4.77
2022-07-31T17:49:24.438Z,4.20
2022-07-31T17:51:58.740Z,4.27
2022-07-31T17:54:28.458Z,3.73
2022-07-31T17:56:55.222Z,3.10
2022-07-31T17:59:23.030Z,3.90
2022-07-31T18:02:02.052Z,2.87
2022-07-31T18:04:38.833Z,3.27
2022-07-31T18:07:07.666Z,3.80
2022-07-31T18:09:36.471Z,2.97
2022-07-31T18:12:03.856Z,4.23
2022-07-31T18:14:30.869Z,5.43
2022-07-31T18:16:57.607Z,5.70
2022-07-31T18:19:24.340Z,3.53
2022-07-31T18:21:52.049Z,3.60
2022-07-31T18:24:22.285Z,2.90
2022-07-31T18:26:49.708Z,6.13
2022-07-31T18:29:17.519Z,4.53
2022-07-31T18:31:44.945Z,3.30
2022-07-31T18:34:11.608Z,5.67
2022-07-31T18:36:39.001Z,4.07
2022-07-31T18:39:07.372Z,4.00
2022-07-31T18:41:34.210Z,4.20
2022-07-31T18:44:01.493Z,3.50
2022-07-31T18:46:28.496Z,4.10
2022-07-31T18:48:56.670Z,5.40
2022-07-31T18:51:28.319Z,5.90
2022-07-31T18:53:55.850Z,4.07
2022-07-31T18:56:26.062Z,3.50
2022-07-31T18:58:54.185Z,4.07
2022-07-31T19:01:22.031Z,3.30
2022-07-31T19:03:49.704Z,4.07
2022-07-31T19:06:16.932Z,4.97
2022-07-31T19:08:44.008Z,4.30
2022-07-31T19:11:12.083Z,3.23
2022-07-31T19:13:38.801Z,3.30
2022-07-31T19:16:05.988Z,3.83
2022-07-31T19:18:32.722Z,3.37
2022-07-31T19:21:23.357Z,3.23
2022-07-31T19:23:47.330Z,3.13
2022-07-31T19:26:14.295Z,4.33
2022-07-31T19:28:43.225Z,3.17
2022-07-31T19:31:11.519Z,3.50
2022-07-31T19:33:38.254Z,3.73
2022-07-31T19:36:05.455Z,3.47
2022-07-31T19:38:33.952Z,4.30
2022-07-31T19:41:00.619Z,3.00
2022-07-31T19:43:28.540Z,5.20
2022-07-31T19:46:09.645Z,3.43
2022-07-31T19:48:44.146Z,3.90
2022-07-31T19:51:12.426Z,4.43
2022-07-31T19:53:40.014Z,3.40
2022-07-31T19:56:07.371Z,5.10
2022-07-31T19:58:35.811Z,4.37
2022-07-31T20:01:04.893Z,3.57
2022-07-31T20:03:31.922Z,4.50
2022-07-31T20:05:58.712Z,5.23
2022-07-31T20:08:25.446Z,5.80
2022-07-31T20:10:52.562Z,4.30
2022-07-31T20:13:19.507Z,3.90
2022-07-31T20:15:52.260Z,6.10
2022-07-31T20:18:28.564Z,4.10
2022-07-31T20:21:04.519Z,3.53
2022-07-31T20:23:34.112Z,3.90
2022-07-31T20:26:01.400Z,3.80
2022-07-31T20:28:28.178Z,3.23
2022-07-31T20:30:54.866Z,4.27
2022-07-31T20:33:21.645Z,4.27
2022-07-31T20:35:50.276Z,4.27
2022-07-31T20:38:21.487Z,3.80
2022-07-31T20:40:54.601Z,5.63
2022-07-31T20:43:27.616Z,7.07
2022-07-31T20:45:58.545Z,5.80
2022-07-31T20:48:31.415Z,3.47
2022-07-31T20:50:59.979Z,3.53
2022-07-31T20:53:27.474Z,4.07
2022-07-31T20:55:54.441Z,3.97
2022-07-31T20:58:23.136Z,3.63
2022-07-31T21:00:51.838Z,4.07
2022-07-31T21:03:19.780Z,4.77
2022-07-31T21:05:46.885Z,7.73
2022-07-31T21:08:13.616Z,4.00
2022-07-31T21:10:41.037Z,4.63
2022-07-31T21:13:07.989Z,5.03
2022-07-31T21:15:44.176Z,4.50
2022-07-31T21:18:16.553Z,4.53
2022-07-31T21:20:51.550Z,4.00
2022-07-31T21:23:25.059Z,4.80
2022-07-31T21:25:53.641Z,4.30
2022-07-31T21:28:21.851Z,4.40
2022-07-31T21:30:48.759Z,4.20
2022-07-31T21:33:16.317Z,4.10
2022-07-31T21:35:43.406Z,5.97
2022-07-31T21:38:11.887Z,5.73
2022-07-31T21:40:40.340Z,4.53
2022-07-31T21:43:11.716Z,4.50
2022-07-31T21:45:50.823Z,5.10
2022-07-31T21:48:25.042Z,4.33
2022-07-31T21:50:53.125Z,4.97
2022-07-31T21:53:19.845Z,5.53
2022-07-31T21:55:46.554Z,8.00
2022-07-31T21:58:13.313Z,5.40
2022-07-31T22:00:40.014Z,5.97
2022-07-31T22:03:07.187Z,5.17
2022-07-31T22:05:52.962Z,5.90
2022-07-31T22:08:20.149Z,4.80
2022-07-31T22:10:49.354Z,5.40
2022-07-31T22:13:16.033Z,6.00
2022-07-31T22:15:56.979Z,7.53
2022-07-31T22:18:32.236Z,6.43
2022-07-31T22:21:00.287Z,5.33
2022-07-31T22:23:28.441Z,6.07
2022-07-31T22:25:55.550Z,5.23
2022-07-31T22:28:24.029Z,5.80
2022-07-31T22:30:51.344Z,5.57
2022-07-31T22:33:18.812Z,5.07
2022-07-31T22:35:58.636Z,6.33
2022-07-31T22:38:29.311Z,5.90
2022-07-31T22:40:56.317Z,7.60
2022-07-31T22:44:05.637Z,5.97
2022-07-31T22:46:12.142Z,5.90
2022-07-31T22:48:40.730Z,9.00
2022-07-31T22:51:08.372Z,5.80
2022-07-31T22:53:36.216Z,7.40
2022-07-31T22:56:05.887Z,6.60
2022-07-31T22:58:33.267Z,6.90
2022-07-31T23:00:59.972Z,9.10
2022-07-31T23:03:26.604Z,10.57
2022-07-31T23:06:29.146Z,10.30
2022-07-31T23:08:39.870Z,9.50
2022-07-31T23:11:06.534Z,10.03
2022-07-31T23:13:33.189Z,13.77
2022-07-31T23:15:59.839Z,16.07
2022-07-31T23:18:27.211Z,12.97
2022-07-31T23:20:53.926Z,11.30
2022-07-31T23:23:20.574Z,9.73
2022-07-31T23:25:47.215Z,10.90
2022-07-31T23:28:13.886Z,10.30
2022-07-31T23:30:40.654Z,9.40
2022-07-31T23:33:07.384Z,9.23
2022-07-31T23:35:34.047Z,9.87
2022-07-31T23:38:00.656Z,8.40
2022-07-31T23:40:27.314Z,8.83
2022-07-31T23:42:53.968Z,9.23
2022-07-31T23:45:20.591Z,7.97
2022-07-31T23:47:48.240Z,9.10
2022-07-31T23:50:16.143Z,7.23
2022-07-31T23:52:43.817Z,7.37
2022-07-31T23:55:10.566Z,9.23
2022-07-31T23:57:37.874Z,6.77
